createdAt,value
2017-06-01T04:55:51.214Z,3.88
2017-06-01T04:58:18.053Z,3.52
2017-06-01T05:00:44.854Z,3.22
2017-06-01T05:03:11.699Z,3.68
2017-06-01T05:05:38.497Z,1.74
2017-06-01T05:08:05.313Z,3.60
2017-06-01T05:10:32.142Z,3.56
2017-06-01T05:12:58.931Z,2.18
2017-06-01T05:15:25.743Z,3.38
2017-06-01T05:17:52.626Z,3.26
2017-06-01T05:20:19.500Z,2.58
2017-06-01T05:22:46.311Z,3.30
2017-06-01T05:25:13.143Z,2.38
2017-06-01T05:27:40.176Z,2.78
2017-06-01T05:30:07.000Z,2.78
2017-06-01T05:32:33.856Z,1.20
2017-06-01T05:35:00.701Z,2.12
2017-06-01T05:37:27.517Z,2.92
2017-06-01T05:39:54.428Z,2.54
2017-06-01T05:42:22.006Z,2.86
2017-06-01T05:44:48.947Z,3.94
2017-06-01T05:47:15.796Z,2.90
2017-06-01T05:49:42.576Z,3.16
2017-06-01T05:52:09.874Z,2.96
2017-06-01T05:54:36.734Z,2.60
2017-06-01T05:57:03.952Z,2.96
2017-06-01T05:59:30.773Z,2.62
2017-06-01T06:01:57.636Z,2.76
2017-06-01T06:04:24.489Z,0.64
2017-06-01T06:06:51.303Z,2.94
2017-06-01T06:09:18.153Z,1.38
2017-06-01T06:11:44.999Z,2.44
2017-06-01T06:14:12.702Z,7.44
2017-06-01T06:16:39.531Z,3.02
2017-06-01T06:19:06.308Z,2.90
2017-06-01T06:21:33.147Z,2.76
2017-06-01T06:24:00.038Z,2.68
2017-06-01T06:26:26.887Z,2.26
2017-06-01T06:28:53.677Z,2.88
2017-06-01T06:31:20.535Z,2.12
2017-06-01T06:33:47.487Z,2.26
2017-06-01T06:36:14.401Z,2.80
2017-06-01T06:38:41.266Z,3.22
2017-06-01T06:41:08.179Z,2.14
2017-06-01T06:43:35.002Z,2.04
2017-06-01T06:46:01.831Z,2.18
2017-06-01T06:48:28.647Z,2.18
2017-06-01T06:50:55.450Z,2.56
2017-06-01T06:53:22.293Z,1.86
2017-06-01T06:55:49.124Z,4.32
2017-06-01T06:58:15.945Z,3.20
2017-06-01T07:00:42.796Z,5.70
2017-06-01T07:03:09.605Z,4.20
2017-06-01T07:05:36.391Z,1.62
2017-06-01T07:08:03.943Z,3.22
2017-06-01T07:10:30.791Z,2.66
2017-06-01T07:12:57.596Z,1.80
2017-06-01T07:15:24.432Z,3.00
2017-06-01T07:17:51.270Z,2.44
2017-06-01T07:20:18.076Z,2.04
2017-06-01T07:22:44.947Z,2.92
2017-06-01T07:25:11.736Z,2.74
2017-06-01T07:27:38.587Z,3.26
2017-06-01T07:30:05.491Z,2.44
2017-06-01T07:32:32.292Z,1.52
2017-06-01T07:34:59.079Z,2.66
2017-06-01T07:37:25.921Z,3.18
2017-06-01T07:39:52.715Z,2.66
2017-06-01T07:42:19.492Z,2.84
2017-06-01T07:44:46.337Z,2.12
2017-06-01T07:47:13.133Z,1.48
2017-06-01T07:49:39.925Z,2.26
2017-06-01T07:52:06.879Z,2.58
2017-06-01T07:54:33.689Z,2.00
2017-06-01T07:57:00.488Z,2.30
2017-06-01T07:59:27.657Z,1.72
2017-06-01T08:01:54.455Z,1.40
2017-06-01T08:04:21.282Z,2.20
2017-06-01T08:06:48.125Z,3.04
2017-06-01T08:09:14.963Z,1.80
2017-06-01T08:11:41.767Z,2.10
2017-06-01T08:14:08.736Z,2.08
2017-06-01T08:16:35.533Z,2.02
2017-06-01T08:19:02.362Z,0.86
2017-06-01T08:21:29.223Z,3.18
2017-06-01T08:23:56.008Z,1.54
2017-06-01T08:26:22.850Z,2.64
2017-06-01T08:28:50.019Z,2.38
2017-06-01T08:31:16.831Z,2.50
2017-06-01T08:33:43.655Z,0.76
2017-06-01T08:36:10.476Z,1.08
2017-06-01T08:38:37.267Z,2.10
2017-06-01T08:41:14.015Z,2.92
2017-06-01T08:43:40.805Z,2.80
2017-06-01T08:46:07.621Z,3.06
2017-06-01T08:48:34.481Z,1.56
2017-06-01T08:51:01.310Z,0.98
2017-06-01T08:53:28.154Z,2.40
2017-06-01T08:55:55.032Z,2.96
2017-06-01T08:58:21.823Z,2.00
2017-06-01T09:00:48.647Z,1.10
2017-06-01T09:03:15.570Z,2.30
2017-06-01T09:05:42.360Z,1.80
2017-06-01T09:08:09.168Z,2.30
2017-06-01T09:10:36.067Z,1.34
2017-06-01T09:13:02.886Z,2.26
2017-06-01T09:15:29.722Z,2.16
2017-06-01T09:17:56.534Z,2.34
2017-06-01T09:20:23.332Z,2.24
2017-06-01T09:22:50.099Z,1.60
2017-06-01T09:25:16.986Z,2.62
2017-06-01T09:27:43.818Z,2.44
2017-06-01T09:30:10.646Z,3.56
2017-06-01T09:32:37.534Z,2.02
2017-06-01T09:35:04.358Z,2.74
2017-06-01T09:37:31.216Z,2.36
2017-06-01T09:39:58.095Z,2.08
2017-06-01T09:42:24.942Z,2.12
2017-06-01T09:44:51.727Z,2.56
2017-06-01T09:47:18.587Z,2.70
2017-06-01T09:49:45.409Z,2.30
2017-06-01T09:52:12.315Z,2.12
2017-06-01T09:54:39.228Z,2.76
2017-06-01T09:57:06.067Z,1.24
2017-06-01T09:59:32.878Z,3.46
2017-06-01T10:01:59.742Z,2.30
2017-06-01T10:04:26.559Z,3.06
2017-06-01T10:06:53.412Z,1.66
2017-06-01T10:09:20.282Z,3.32
2017-06-01T10:11:47.100Z,2.34
2017-06-01T10:14:13.977Z,1.40
2017-06-01T10:16:40.871Z,2.32
2017-06-01T10:19:07.697Z,2.80
2017-06-01T10:21:34.515Z,2.68
2017-06-01T10:24:02.422Z,2.40
2017-06-01T10:26:29.317Z,1.58
2017-06-01T10:28:56.163Z,2.48
2017-06-01T10:31:23.107Z,3.38
2017-06-01T10:33:49.957Z,1.20
2017-06-01T10:36:16.878Z,2.10
2017-06-01T10:38:43.708Z,2.20
2017-06-01T10:41:10.501Z,2.18
2017-06-01T10:43:37.326Z,2.76
2017-06-01T10:46:04.181Z,2.68
2017-06-01T10:48:30.985Z,2.70
2017-06-01T10:50:57.825Z,3.46
2017-06-01T10:53:24.703Z,2.44
2017-06-01T10:55:51.524Z,1.44
2017-06-01T10:58:18.336Z,2.76
2017-06-01T11:00:45.131Z,2.50
2017-06-01T11:03:11.938Z,2.22
2017-06-01T11:05:38.761Z,1.74
2017-06-01T11:08:05.610Z,0.92
2017-06-01T11:10:32.418Z,1.90
2017-06-01T11:12:59.257Z,1.16
2017-06-01T11:15:26.133Z,2.14
2017-06-01T11:17:53.073Z,2.14
2017-06-01T11:20:19.914Z,2.02
2017-06-01T11:22:46.738Z,2.46
2017-06-01T11:25:13.541Z,0.76
2017-06-01T11:27:41.287Z,1.28
2017-06-01T11:30:08.165Z,2.14
2017-06-01T11:32:35.005Z,2.26
2017-06-01T11:35:01.827Z,2.20
2017-06-01T11:37:28.715Z,2.56
2017-06-01T11:39:55.565Z,2.36
2017-06-01T11:42:22.404Z,0.98
2017-06-01T11:44:49.283Z,2.30
2017-06-01T11:47:16.130Z,2.12
2017-06-01T11:49:42.925Z,1.62
2017-06-01T11:52:09.760Z,1.72
2017-06-01T11:54:36.581Z,1.82
2017-06-01T11:57:03.415Z,1.40
2017-06-01T11:59:30.244Z,1.62
2017-06-01T12:01:57.012Z,2.10
2017-06-01T12:04:23.814Z,2.04
2017-06-01T12:06:50.797Z,2.26
2017-06-01T12:09:17.622Z,1.58
2017-06-01T12:11:44.841Z,2.06
2017-06-01T12:14:11.730Z,0.82
2017-06-01T12:16:38.558Z,1.94
2017-06-01T12:19:05.408Z,1.22
2017-06-01T12:21:32.269Z,1.62
2017-06-01T12:23:59.097Z,2.54
2017-06-01T12:26:25.975Z,2.08
2017-06-01T12:28:52.825Z,2.10
2017-06-01T12:31:19.723Z,2.34
2017-06-01T12:33:46.556Z,0.82
2017-06-01T12:36:13.756Z,1.08
2017-06-01T12:38:40.587Z,2.38
2017-06-01T12:41:07.418Z,1.40
2017-06-01T12:43:34.379Z,2.34
2017-06-01T12:46:01.196Z,1.66
2017-06-01T12:48:27.980Z,1.96
2017-06-01T12:50:54.840Z,0.72
2017-06-01T12:53:21.641Z,1.66
2017-06-01T12:55:48.469Z,0.90
2017-06-01T12:58:15.356Z,2.66
2017-06-01T13:00:42.171Z,1.76
2017-06-01T13:03:09.010Z,1.58
2017-06-01T13:05:35.865Z,1.88
2017-06-01T13:08:02.687Z,1.50
2017-06-01T13:10:29.584Z,1.42
2017-06-01T13:12:56.424Z,2.04
2017-06-01T13:15:23.270Z,0.58
2017-06-01T13:17:50.057Z,2.00
2017-06-01T13:20:16.896Z,1.86
2017-06-01T13:22:43.751Z,1.98
2017-06-01T13:25:10.845Z,1.88
2017-06-01T13:27:37.692Z,1.96
2017-06-01T13:30:04.569Z,2.04
2017-06-01T13:32:31.526Z,1.78
2017-06-01T13:34:58.509Z,1.76
2017-06-01T13:37:25.427Z,1.38
2017-06-01T13:39:52.260Z,2.40
2017-06-01T13:42:19.572Z,2.54
2017-06-01T13:44:46.358Z,2.14
2017-06-01T13:47:13.156Z,1.84
2017-06-01T13:49:39.995Z,1.84
2017-06-01T13:52:06.811Z,1.00
2017-06-01T13:54:33.708Z,1.66
2017-06-01T13:57:00.519Z,2.06
2017-06-01T13:59:28.130Z,1.68
2017-06-01T14:01:55.335Z,1.28
2017-06-01T14:04:22.264Z,2.64
2017-06-01T14:06:49.105Z,1.70
2017-06-01T14:09:15.971Z,1.80
2017-06-01T14:11:43.626Z,1.84
2017-06-01T14:14:10.429Z,1.20
2017-06-01T14:16:37.243Z,2.18
2017-06-01T14:19:04.690Z,1.50
2017-06-01T14:21:31.843Z,1.28
2017-06-01T14:23:58.675Z,1.60
2017-06-01T14:26:25.516Z,1.68
2017-06-01T14:28:52.296Z,1.70
2017-06-01T14:31:19.092Z,2.18
2017-06-01T14:33:45.930Z,1.68
2017-06-01T14:36:12.751Z,1.76
2017-06-01T14:38:39.617Z,1.42
2017-06-01T14:41:08.586Z,2.06
2017-06-01T14:43:35.418Z,2.02
2017-06-01T14:46:02.256Z,2.22
2017-06-01T14:48:29.097Z,2.86
2017-06-01T14:50:55.916Z,1.60
2017-06-01T14:53:22.721Z,1.86
2017-06-01T14:55:49.534Z,1.64
2017-06-01T14:58:16.416Z,1.88
2017-06-01T15:00:43.296Z,1.82
2017-06-01T15:03:10.141Z,1.74
2017-06-01T15:05:36.939Z,2.24
2017-06-01T15:08:03.743Z,1.80
2017-06-01T15:10:30.607Z,2.06
2017-06-01T15:12:57.428Z,1.88
2017-06-01T15:15:24.256Z,1.62
2017-06-01T15:17:51.113Z,1.80
2017-06-01T15:20:17.905Z,1.64
2017-06-01T15:22:45.000Z,1.70
2017-06-01T15:25:11.862Z,2.50
2017-06-01T15:27:38.724Z,2.00
2017-06-01T15:30:05.731Z,2.00
2017-06-01T15:32:32.745Z,1.44
2017-06-01T15:34:59.541Z,1.88
2017-06-01T15:37:26.397Z,1.64
2017-06-01T15:39:53.235Z,1.66
2017-06-01T15:42:20.110Z,1.58
2017-06-01T15:44:46.938Z,1.56
2017-06-01T15:47:13.972Z,1.60
2017-06-01T15:49:40.809Z,1.40
2017-06-01T15:52:07.577Z,2.36
2017-06-01T15:54:34.437Z,1.82
2017-06-01T15:57:01.257Z,1.88
2017-06-01T15:59:28.067Z,1.72
2017-06-01T16:01:54.917Z,1.30
2017-06-01T16:04:21.703Z,1.90
2017-06-01T16:06:48.509Z,1.80
2017-06-01T16:09:15.362Z,1.52
2017-06-01T16:11:42.169Z,0.80
2017-06-01T16:14:08.959Z,1.90
2017-06-01T16:16:35.807Z,1.54
2017-06-01T16:19:02.647Z,2.34
2017-06-01T16:21:29.460Z,1.50
2017-06-01T16:23:56.342Z,1.56
2017-06-01T16:26:23.172Z,1.30
2017-06-01T16:28:49.971Z,0.82
2017-06-01T16:31:16.990Z,0.76
2017-06-01T16:33:43.810Z,2.00
2017-06-01T16:36:10.612Z,1.72
2017-06-01T16:38:37.452Z,1.42
2017-06-01T16:41:04.289Z,1.38
2017-06-01T16:43:31.192Z,1.42
2017-06-01T16:45:58.175Z,1.76
2017-06-01T16:48:25.023Z,1.70
2017-06-01T16:50:51.851Z,1.70
2017-06-01T16:53:18.689Z,2.44
2017-06-01T16:55:45.533Z,2.04
2017-06-01T16:58:12.388Z,2.18
2017-06-01T17:00:39.244Z,0.84
2017-06-01T17:03:06.102Z,1.54
2017-06-01T17:05:32.943Z,1.42
2017-06-01T17:07:59.849Z,1.66
2017-06-01T17:10:26.692Z,2.00
2017-06-01T17:12:53.586Z,1.70
2017-06-01T17:15:20.489Z,1.76
2017-06-01T17:17:47.324Z,1.30
2017-06-01T17:20:14.172Z,1.64
2017-06-01T17:22:41.108Z,1.84
2017-06-01T17:25:07.926Z,1.70
2017-06-01T17:27:34.793Z,1.56
2017-06-01T17:30:01.674Z,1.70
2017-06-01T17:32:28.516Z,2.08
2017-06-01T17:34:55.401Z,1.40
2017-06-01T17:37:22.261Z,1.72
2017-06-01T17:39:49.100Z,2.06
2017-06-01T17:42:15.927Z,2.06
2017-06-01T17:44:42.758Z,1.42
2017-06-01T17:47:09.613Z,1.44
2017-06-01T17:49:36.398Z,1.86
2017-06-01T17:52:03.272Z,3.32
2017-06-01T17:54:30.108Z,1.46
2017-06-01T17:56:56.938Z,2.70
2017-06-01T17:59:23.800Z,1.60
2017-06-01T18:01:50.656Z,1.56
2017-06-01T18:04:17.456Z,2.06
2017-06-01T18:06:44.477Z,1.76
2017-06-01T18:09:11.313Z,1.98
2017-06-01T18:11:38.202Z,1.86
2017-06-01T18:14:05.074Z,1.70
2017-06-01T18:16:31.886Z,1.98
2017-06-01T18:18:58.708Z,2.22
2017-06-01T18:21:25.651Z,2.18
2017-06-01T18:23:52.494Z,1.64
2017-06-01T18:26:19.298Z,2.02
2017-06-01T18:28:46.199Z,2.38
2017-06-01T18:31:13.085Z,2.22
2017-06-01T18:33:40.071Z,2.40
2017-06-01T18:36:07.062Z,1.98
2017-06-01T18:38:33.924Z,2.86
2017-06-01T18:41:01.282Z,2.48
2017-06-01T18:43:28.370Z,1.98
2017-06-01T18:45:55.226Z,2.34
2017-06-01T18:48:22.196Z,1.82
2017-06-01T18:50:49.222Z,2.80
2017-06-01T18:53:16.051Z,2.20
2017-06-01T18:55:42.874Z,2.44
2017-06-01T18:58:09.718Z,2.62
2017-06-01T19:00:36.518Z,2.44
2017-06-01T19:03:03.321Z,3.06
2017-06-01T19:05:30.173Z,2.64
2017-06-01T19:07:57.055Z,2.72
2017-06-01T19:10:23.857Z,2.60
2017-06-01T19:12:50.834Z,2.82
2017-06-01T19:15:17.693Z,2.56
2017-06-01T19:17:44.966Z,2.44
2017-06-01T19:20:13.269Z,2.66
2017-06-01T19:22:41.900Z,3.02
2017-06-01T19:25:09.280Z,3.02
2017-06-01T19:27:36.669Z,3.14
2017-06-01T19:30:03.990Z,2.68
2017-06-01T19:32:31.283Z,2.48
2017-06-01T19:34:58.155Z,3.02
2017-06-01T19:37:25.017Z,2.60
2017-06-01T19:39:51.889Z,2.68
2017-06-01T19:42:18.805Z,3.48
2017-06-01T19:44:45.645Z,2.74
2017-06-01T19:47:12.440Z,2.82
2017-06-01T19:49:39.282Z,2.56
2017-06-01T19:52:06.171Z,3.10
2017-06-01T19:54:33.036Z,3.22
2017-06-01T19:56:59.879Z,3.78
2017-06-01T19:59:26.778Z,3.64
2017-06-01T20:01:53.663Z,3.68
2017-06-01T20:04:20.519Z,2.70
2017-06-01T20:06:47.392Z,3.08
2017-06-01T20:09:14.227Z,3.66
2017-06-01T20:11:41.135Z,3.20
2017-06-01T20:14:08.005Z,3.78
2017-06-01T20:16:34.856Z,3.90
2017-06-01T20:19:01.740Z,4.08
2017-06-01T20:21:28.580Z,3.36
2017-06-01T20:23:55.425Z,3.78
2017-06-01T20:26:22.276Z,3.68
2017-06-01T20:28:49.088Z,3.88
2017-06-01T20:31:15.953Z,2.96
2017-06-01T20:33:42.819Z,3.30
2017-06-01T20:36:09.593Z,3.64
2017-06-01T20:38:36.422Z,4.22
2017-06-01T20:41:03.251Z,3.30
2017-06-01T20:43:30.107Z,4.22
2017-06-01T20:45:56.969Z,3.02
2017-06-01T20:48:23.816Z,3.34
2017-06-01T20:50:50.585Z,3.48
2017-06-01T20:53:17.343Z,3.50
2017-06-01T20:55:44.133Z,5.34
2017-06-01T20:58:10.903Z,3.68
2017-06-01T21:00:37.670Z,3.24
2017-06-01T21:03:04.476Z,3.54
2017-06-01T21:05:31.231Z,4.20
2017-06-01T21:07:57.979Z,3.30
2017-06-01T21:10:24.787Z,3.52
2017-06-01T21:12:51.566Z,4.04
2017-06-01T21:15:18.321Z,3.26
2017-06-01T21:17:45.175Z,3.40
2017-06-01T21:20:11.969Z,3.86
2017-06-01T21:22:38.753Z,3.78
2017-06-01T21:25:05.566Z,3.88
2017-06-01T21:27:32.349Z,6.00
2017-06-01T21:29:59.122Z,4.44
2017-06-01T21:32:25.937Z,3.40
2017-06-01T21:34:52.718Z,3.68
2017-06-01T21:37:19.527Z,4.80
2017-06-01T21:39:46.359Z,3.66
2017-06-01T21:42:13.125Z,4.40
2017-06-01T21:44:39.887Z,3.90
2017-06-01T21:47:06.719Z,4.48
2017-06-01T21:49:33.500Z,4.08
2017-06-01T21:52:00.253Z,4.82
2017-06-01T21:54:27.067Z,4.00
2017-06-01T21:56:53.889Z,4.10
2017-06-01T21:59:20.644Z,3.76
2017-06-01T22:01:47.464Z,4.22
2017-06-01T22:04:14.211Z,4.50
2017-06-01T22:06:41.008Z,3.90
2017-06-01T22:09:07.818Z,4.54
2017-06-01T22:11:34.582Z,4.48
2017-06-01T22:14:01.340Z,4.70
2017-06-01T22:16:28.151Z,3.90
2017-06-01T22:18:54.913Z,3.42
2017-06-01T22:21:21.702Z,3.80
